sensor_id;sensor_type;location;lat;lon;timestamp;P1;durP1;ratioP1;P2;durP2;ratioP2
28495;SDS011;15710;51.604;7.316;2022-07-01T00:00:04;21.77;;;16.85;;
28495;SDS011;15710;51.604;7.316;2022-07-01T00:02:30;22.27;;;16.88;;
28495;SDS011;15710;51.604;7.316;2022-07-01T00:04:57;19.15;;;15.40;;
28495;SDS011;15710;51.604;7.316;2022-07-01T00:07:23;20.15;;;15.68;;
28495;SDS011;15710;51.604;7.316;2022-07-01T00:09:49;23.38;;;17.05;;
28495;SDS011;15710;51.604;7.316;2022-07-01T00:12:15;25.30;;;17.10;;
28495;SDS011;15710;51.604;7.316;2022-07-01T00:14:42;21.85;;;16.15;;
28495;SDS011;15710;51.604;7.316;2022-07-01T00:17:08;25.20;;;18.02;;
28495;SDS011;15710;51.604;7.316;2022-07-01T00:19:34;24.90;;;17.30;;
28495;SDS011;15710;51.604;7.316;2022-07-01T00:22:00;23.33;;;17.60;;
28495;SDS011;15710;51.604;7.316;2022-07-01T00:24:26;29.85;;;17.13;;
28495;SDS011;15710;51.604;7.316;2022-07-01T00:26:53;27.00;;;16.10;;
28495;SDS011;15710;51.604;7.316;2022-07-01T00:29:19;22.35;;;16.13;;
28495;SDS011;15710;51.604;7.316;2022-07-01T00:31:45;25.77;;;16.85;;
28495;SDS011;15710;51.604;7.316;2022-07-01T00:34:11;24.23;;;15.73;;
28495;SDS011;15710;51.604;7.316;2022-07-01T00:36:37;26.30;;;16.42;;
28495;SDS011;15710;51.604;7.316;2022-07-01T00:39:03;22.58;;;15.88;;
28495;SDS011;15710;51.604;7.316;2022-07-01T00:41:29;21.60;;;15.30;;
28495;SDS011;15710;51.604;7.316;2022-07-01T00:43:55;20.25;;;14.65;;
28495;SDS011;15710;51.604;7.316;2022-07-01T00:46:23;19.17;;;14.07;;
28495;SDS011;15710;51.604;7.316;2022-07-01T00:48:50;20.35;;;14.43;;
28495;SDS011;15710;51.604;7.316;2022-07-01T00:51:17;23.10;;;15.07;;
28495;SDS011;15710;51.604;7.316;2022-07-01T00:53:45;20.02;;;14.70;;
28495;SDS011;15710;51.604;7.316;2022-07-01T00:56:12;19.52;;;14.38;;
28495;SDS011;15710;51.604;7.316;2022-07-01T00:58:39;24.38;;;14.57;;
28495;SDS011;15710;51.604;7.316;2022-07-01T01:01:05;21.17;;;14.95;;
28495;SDS011;15710;51.604;7.316;2022-07-01T01:03:31;22.73;;;15.73;;
28495;SDS011;15710;51.604;7.316;2022-07-01T01:05:58;28.27;;;17.70;;
28495;SDS011;15710;51.604;7.316;2022-07-01T01:08:24;24.90;;;16.88;;
28495;SDS011;15710;51.604;7.316;2022-07-01T01:10:51;26.75;;;17.58;;
28495;SDS011;15710;51.604;7.316;2022-07-01T01:13:18;27.92;;;19.08;;
28495;SDS011;15710;51.604;7.316;2022-07-01T01:15:44;27.52;;;17.73;;
28495;SDS011;15710;51.604;7.316;2022-07-01T01:18:11;32.67;;;18.13;;
28495;SDS011;15710;51.604;7.316;2022-07-01T01:20:37;27.02;;;19.08;;
28495;SDS011;15710;51.604;7.316;2022-07-01T01:23:04;27.55;;;18.50;;
28495;SDS011;15710;51.604;7.316;2022-07-01T01:25:34;28.15;;;19.65;;
28495;SDS011;15710;51.604;7.316;2022-07-01T01:28:01;28.52;;;19.52;;
28495;SDS011;15710;51.604;7.316;2022-07-01T01:30:28;31.23;;;20.23;;
28495;SDS011;15710;51.604;7.316;2022-07-01T01:32:54;29.42;;;20.55;;
28495;SDS011;15710;51.604;7.316;2022-07-01T01:35:21;31.33;;;20.92;;
28495;SDS011;15710;51.604;7.316;2022-07-01T01:37:47;33.08;;;21.27;;
28495;SDS011;15710;51.604;7.316;2022-07-01T01:40:14;32.08;;;20.52;;
28495;SDS011;15710;51.604;7.316;2022-07-01T01:42:43;35.00;;;21.92;;
28495;SDS011;15710;51.604;7.316;2022-07-01T01:45:11;32.67;;;20.95;;
28495;SDS011;15710;51.604;7.316;2022-07-01T01:47:37;31.70;;;20.42;;
28495;SDS011;15710;51.604;7.316;2022-07-01T01:50:05;37.40;;;22.70;;
28495;SDS011;15710;51.604;7.316;2022-07-01T01:52:32;33.17;;;22.08;;
28495;SDS011;15710;51.604;7.316;2022-07-01T01:54:59;36.28;;;22.73;;
28495;SDS011;15710;51.604;7.316;2022-07-01T01:57:25;37.65;;;23.85;;
28495;SDS011;15710;51.604;7.316;2022-07-01T01:59:51;39.45;;;25.52;;
28495;SDS011;15710;51.604;7.316;2022-07-01T02:02:17;37.20;;;24.33;;
28495;SDS011;15710;51.604;7.316;2022-07-01T02:04:43;45.60;;;28.70;;
28495;SDS011;15710;51.604;7.316;2022-07-01T02:07:09;42.97;;;27.48;;
28495;SDS011;15710;51.604;7.316;2022-07-01T02:09:36;44.92;;;29.50;;
28495;SDS011;15710;51.604;7.316;2022-07-01T02:12:02;42.90;;;28.25;;
28495;SDS011;15710;51.604;7.316;2022-07-01T02:14:29;56.65;;;32.45;;
28495;SDS011;15710;51.604;7.316;2022-07-01T02:16:56;51.78;;;31.40;;
28495;SDS011;15710;51.604;7.316;2022-07-01T02:19:22;52.00;;;30.80;;
28495;SDS011;15710;51.604;7.316;2022-07-01T02:21:48;53.72;;;30.83;;
28495;SDS011;15710;51.604;7.316;2022-07-01T02:24:16;48.70;;;31.17;;
28495;SDS011;15710;51.604;7.316;2022-07-01T02:26:44;51.40;;;31.90;;
28495;SDS011;15710;51.604;7.316;2022-07-01T02:29:10;50.95;;;30.63;;
28495;SDS011;15710;51.604;7.316;2022-07-01T02:31:36;49.70;;;30.52;;
28495;SDS011;15710;51.604;7.316;2022-07-01T02:34:02;48.42;;;29.27;;
28495;SDS011;15710;51.604;7.316;2022-07-01T02:36:28;51.72;;;31.25;;
28495;SDS011;15710;51.604;7.316;2022-07-01T02:38:54;50.97;;;29.27;;
28495;SDS011;15710;51.604;7.316;2022-07-01T02:41:20;42.03;;;26.80;;
28495;SDS011;15710;51.604;7.316;2022-07-01T02:43:46;41.60;;;25.38;;
28495;SDS011;15710;51.604;7.316;2022-07-01T02:46:12;41.05;;;24.98;;
28495;SDS011;15710;51.604;7.316;2022-07-01T02:48:38;33.22;;;20.42;;
28495;SDS011;15710;51.604;7.316;2022-07-01T02:51:04;30.75;;;19.23;;
28495;SDS011;15710;51.604;7.316;2022-07-01T02:53:30;28.35;;;19.30;;
28495;SDS011;15710;51.604;7.316;2022-07-01T02:55:56;29.50;;;18.35;;
28495;SDS011;15710;51.604;7.316;2022-07-01T02:58:23;24.35;;;17.00;;
28495;SDS011;15710;51.604;7.316;2022-07-01T03:00:50;22.08;;;15.80;;
28495;SDS011;15710;51.604;7.316;2022-07-01T03:03:18;25.08;;;16.00;;
28495;SDS011;15710;51.604;7.316;2022-07-01T03:05:44;23.80;;;15.45;;
28495;SDS011;15710;51.604;7.316;2022-07-01T03:08:12;27.15;;;15.73;;
28495;SDS011;15710;51.604;7.316;2022-07-01T03:10:38;24.45;;;15.68;;
28495;SDS011;15710;51.604;7.316;2022-07-01T03:13:05;20.15;;;13.85;;
28495;SDS011;15710;51.604;7.316;2022-07-01T03:15:31;21.05;;;14.60;;
28495;SDS011;15710;51.604;7.316;2022-07-01T03:17:57;20.58;;;13.90;;
28495;SDS011;15710;51.604;7.316;2022-07-01T03:20:23;17.83;;;12.52;;
28495;SDS011;15710;51.604;7.316;2022-07-01T03:22:49;18.83;;;12.27;;
28495;SDS011;15710;51.604;7.316;2022-07-01T03:25:16;18.60;;;12.30;;
28495;SDS011;15710;51.604;7.316;2022-07-01T03:27:42;14.45;;;10.80;;
28495;SDS011;15710;51.604;7.316;2022-07-01T03:30:11;18.38;;;11.25;;
28495;SDS011;15710;51.604;7.316;2022-07-01T03:32:37;17.48;;;11.73;;
28495;SDS011;15710;51.604;7.316;2022-07-01T03:35:03;19.23;;;13.30;;
28495;SDS011;15710;51.604;7.316;2022-07-01T03:37:49;20.00;;;13.35;;
28495;SDS011;15710;51.604;7.316;2022-07-01T03:40:15;22.50;;;15.88;;
28495;SDS011;15710;51.604;7.316;2022-07-01T03:42:42;21.50;;;15.20;;
28495;SDS011;15710;51.604;7.316;2022-07-01T03:45:08;23.30;;;16.55;;
28495;SDS011;15710;51.604;7.316;2022-07-01T03:47:34;25.95;;;17.27;;
28495;SDS011;15710;51.604;7.316;2022-07-01T03:50:00;24.70;;;16.98;;
28495;SDS011;15710;51.604;7.316;2022-07-01T03:52:26;29.67;;;17.33;;
28495;SDS011;15710;51.604;7.316;2022-07-01T03:54:52;26.35;;;17.98;;
28495;SDS011;15710;51.604;7.316;2022-07-01T03:57:18;29.27;;;17.70;;
28495;SDS011;15710;51.604;7.316;2022-07-01T03:59:45;25.88;;;17.27;;
28495;SDS011;15710;51.604;7.316;2022-07-01T04:02:11;28.77;;;19.15;;
28495;SDS011;15710;51.604;7.316;2022-07-01T04:04:37;22.67;;;16.65;;
28495;SDS011;15710;51.604;7.316;2022-07-01T04:07:04;24.50;;;18.02;;
28495;SDS011;15710;51.604;7.316;2022-07-01T04:09:32;27.05;;;17.77;;
28495;SDS011;15710;51.604;7.316;2022-07-01T04:11:58;25.05;;;17.85;;
28495;SDS011;15710;51.604;7.316;2022-07-01T04:14:24;28.55;;;18.35;;
28495;SDS011;15710;51.604;7.316;2022-07-01T04:16:51;29.25;;;18.73;;
28495;SDS011;15710;51.604;7.316;2022-07-01T04:19:17;23.35;;;18.23;;
28495;SDS011;15710;51.604;7.316;2022-07-01T04:21:44;26.85;;;16.60;;
28495;SDS011;15710;51.604;7.316;2022-07-01T04:24:28;23.35;;;17.67;;
28495;SDS011;15710;51.604;7.316;2022-07-01T04:26:58;29.88;;;17.95;;
28495;SDS011;15710;51.604;7.316;2022-07-01T04:29:24;26.40;;;18.40;;
28495;SDS011;15710;51.604;7.316;2022-07-01T04:31:50;32.03;;;18.83;;
28495;SDS011;15710;51.604;7.316;2022-07-01T04:34:16;39.50;;;18.40;;
28495;SDS011;15710;51.604;7.316;2022-07-01T04:36:43;24.95;;;17.20;;
28495;SDS011;15710;51.604;7.316;2022-07-01T04:39:09;28.40;;;18.63;;
28495;SDS011;15710;51.604;7.316;2022-07-01T04:41:35;25.27;;;17.88;;
28495;SDS011;15710;51.604;7.316;2022-07-01T04:44:20;32.10;;;18.15;;
28495;SDS011;15710;51.604;7.316;2022-07-01T04:46:46;24.02;;;18.48;;
28495;SDS011;15710;51.604;7.316;2022-07-01T04:49:12;26.02;;;18.25;;
28495;SDS011;15710;51.604;7.316;2022-07-01T04:51:38;29.00;;;19.88;;
28495;SDS011;15710;51.604;7.316;2022-07-01T04:54:05;31.52;;;18.17;;
28495;SDS011;15710;51.604;7.316;2022-07-01T04:56:32;26.45;;;18.13;;
28495;SDS011;15710;51.604;7.316;2022-07-01T04:58:59;30.63;;;17.92;;
28495;SDS011;15710;51.604;7.316;2022-07-01T05:01:26;27.33;;;17.33;;
28495;SDS011;15710;51.604;7.316;2022-07-01T05:03:53;27.98;;;18.48;;
28495;SDS011;15710;51.604;7.316;2022-07-01T05:06:20;27.70;;;18.80;;
28495;SDS011;15710;51.604;7.316;2022-07-01T05:08:46;26.02;;;19.00;;
28495;SDS011;15710;51.604;7.316;2022-07-01T05:11:12;32.38;;;18.50;;
28495;SDS011;15710;51.604;7.316;2022-07-01T05:13:38;33.13;;;18.60;;
28495;SDS011;15710;51.604;7.316;2022-07-01T05:16:05;24.08;;;17.10;;
28495;SDS011;15710;51.604;7.316;2022-07-01T05:18:31;24.25;;;17.95;;
28495;SDS011;15710;51.604;7.316;2022-07-01T05:21:16;27.58;;;19.20;;
28495;SDS011;15710;51.604;7.316;2022-07-01T05:24:01;26.23;;;18.42;;
28495;SDS011;15710;51.604;7.316;2022-07-01T05:26:27;27.00;;;18.65;;
28495;SDS011;15710;51.604;7.316;2022-07-01T05:28:53;29.30;;;17.33;;
28495;SDS011;15710;51.604;7.316;2022-07-01T05:31:19;27.30;;;16.70;;
28495;SDS011;15710;51.604;7.316;2022-07-01T05:33:46;25.63;;;17.63;;
28495;SDS011;15710;51.604;7.316;2022-07-01T05:36:13;24.80;;;17.15;;
28495;SDS011;15710;51.604;7.316;2022-07-01T05:38:39;23.13;;;16.40;;
28495;SDS011;15710;51.604;7.316;2022-07-01T05:41:05;22.55;;;15.75;;
28495;SDS011;15710;51.604;7.316;2022-07-01T05:43:32;25.17;;;17.02;;
28495;SDS011;15710;51.604;7.316;2022-07-01T05:45:59;20.67;;;15.02;;
28495;SDS011;15710;51.604;7.316;2022-07-01T05:48:26;23.15;;;15.57;;
28495;SDS011;15710;51.604;7.316;2022-07-01T05:50:52;25.20;;;15.55;;
28495;SDS011;15710;51.604;7.316;2022-07-01T05:53:18;20.45;;;14.65;;
28495;SDS011;15710;51.604;7.316;2022-07-01T05:55:45;21.05;;;13.85;;
28495;SDS011;15710;51.604;7.316;2022-07-01T05:58:11;23.52;;;14.68;;
28495;SDS011;15710;51.604;7.316;2022-07-01T06:00:38;21.15;;;14.80;;
28495;SDS011;15710;51.604;7.316;2022-07-01T06:03:08;16.65;;;12.98;;
28495;SDS011;15710;51.604;7.316;2022-07-01T06:05:36;24.58;;;14.75;;
28495;SDS011;15710;51.604;7.316;2022-07-01T06:08:02;22.42;;;13.52;;
28495;SDS011;15710;51.604;7.316;2022-07-01T06:10:29;17.17;;;13.38;;
28495;SDS011;15710;51.604;7.316;2022-07-01T06:12:55;20.23;;;14.68;;
28495;SDS011;15710;51.604;7.316;2022-07-01T06:15:21;21.13;;;14.18;;
28495;SDS011;15710;51.604;7.316;2022-07-01T06:17:47;20.73;;;13.82;;
28495;SDS011;15710;51.604;7.316;2022-07-01T06:20:15;22.83;;;13.25;;
28495;SDS011;15710;51.604;7.316;2022-07-01T06:22:41;19.70;;;13.38;;
28495;SDS011;15710;51.604;7.316;2022-07-01T06:25:07;16.67;;;13.00;;
28495;SDS011;15710;51.604;7.316;2022-07-01T06:27:40;20.85;;;13.70;;
28495;SDS011;15710;51.604;7.316;2022-07-01T06:30:10;18.08;;;14.27;;
28495;SDS011;15710;51.604;7.316;2022-07-01T06:32:36;17.25;;;13.95;;
28495;SDS011;15710;51.604;7.316;2022-07-01T06:35:03;23.73;;;13.45;;
28495;SDS011;15710;51.604;7.316;2022-07-01T06:37:30;19.17;;;13.23;;
28495;SDS011;15710;51.604;7.316;2022-07-01T06:39:59;21.65;;;13.95;;
28495;SDS011;15710;51.604;7.316;2022-07-01T06:42:26;15.80;;;12.75;;
28495;SDS011;15710;51.604;7.316;2022-07-01T06:44:52;18.23;;;13.32;;
28495;SDS011;15710;51.604;7.316;2022-07-01T06:47:18;24.27;;;13.23;;
28495;SDS011;15710;51.604;7.316;2022-07-01T06:49:44;15.35;;;12.30;;
28495;SDS011;15710;51.604;7.316;2022-07-01T06:52:11;17.75;;;12.98;;
28495;SDS011;15710;51.604;7.316;2022-07-01T06:54:37;20.55;;;11.90;;
28495;SDS011;15710;51.604;7.316;2022-07-01T06:57:03;16.60;;;11.75;;
28495;SDS011;15710;51.604;7.316;2022-07-01T06:59:30;22.33;;;12.02;;
28495;SDS011;15710;51.604;7.316;2022-07-01T07:01:57;19.92;;;11.98;;
28495;SDS011;15710;51.604;7.316;2022-07-01T07:04:23;15.00;;;12.48;;
28495;SDS011;15710;51.604;7.316;2022-07-01T07:06:49;20.48;;;11.77;;
28495;SDS011;15710;51.604;7.316;2022-07-01T07:09:15;18.00;;;11.40;;
28495;SDS011;15710;51.604;7.316;2022-07-01T07:11:41;16.52;;;10.23;;
28495;SDS011;15710;51.604;7.316;2022-07-01T07:14:07;16.98;;;8.43;;
28495;SDS011;15710;51.604;7.316;2022-07-01T07:16:33;9.77;;;8.27;;
28495;SDS011;15710;51.604;7.316;2022-07-01T07:18:59;12.25;;;8.15;;
28495;SDS011;15710;51.604;7.316;2022-07-01T07:21:25;14.38;;;7.82;;
28495;SDS011;15710;51.604;7.316;2022-07-01T07:23:52;17.45;;;7.22;;
28495;SDS011;15710;51.604;7.316;2022-07-01T07:26:18;9.55;;;7.13;;
28495;SDS011;15710;51.604;7.316;2022-07-01T07:28:44;12.32;;;7.85;;
28495;SDS011;15710;51.604;7.316;2022-07-01T07:31:10;11.13;;;6.72;;
28495;SDS011;15710;51.604;7.316;2022-07-01T07:33:36;12.90;;;8.07;;
28495;SDS011;15710;51.604;7.316;2022-07-01T07:36:02;8.68;;;6.10;;
28495;SDS011;15710;51.604;7.316;2022-07-01T07:38:28;8.95;;;6.65;;
28495;SDS011;15710;51.604;7.316;2022-07-01T07:40:54;8.48;;;6.43;;
28495;SDS011;15710;51.604;7.316;2022-07-01T07:43:20;12.57;;;6.90;;
28495;SDS011;15710;51.604;7.316;2022-07-01T07:45:46;11.68;;;6.50;;
28495;SDS011;15710;51.604;7.316;2022-07-01T07:48:12;13.70;;;6.85;;
28495;SDS011;15710;51.604;7.316;2022-07-01T07:50:38;10.65;;;5.80;;
28495;SDS011;15710;51.604;7.316;2022-07-01T07:53:04;19.15;;;12.48;;
28495;SDS011;15710;51.604;7.316;2022-07-01T07:55:30;7.82;;;5.38;;
28495;SDS011;15710;51.604;7.316;2022-07-01T07:57:56;9.77;;;5.38;;
28495;SDS011;15710;51.604;7.316;2022-07-01T08:00:22;10.43;;;6.60;;
28495;SDS011;15710;51.604;7.316;2022-07-01T08:02:48;10.57;;;5.28;;
28495;SDS011;15710;51.604;7.316;2022-07-01T08:05:14;9.68;;;5.57;;
28495;SDS011;15710;51.604;7.316;2022-07-01T08:07:42;9.65;;;5.82;;
28495;SDS011;15710;51.604;7.316;2022-07-01T08:10:09;7.30;;;5.78;;
28495;SDS011;15710;51.604;7.316;2022-07-01T08:12:37;9.27;;;6.13;;
28495;SDS011;15710;51.604;7.316;2022-07-01T08:15:03;8.50;;;6.60;;
28495;SDS011;15710;51.604;7.316;2022-07-01T08:17:30;11.68;;;7.35;;
28495;SDS011;15710;51.604;7.316;2022-07-01T08:19:56;14.32;;;7.22;;
28495;SDS011;15710;51.604;7.316;2022-07-01T08:22:22;9.07;;;7.45;;
28495;SDS011;15710;51.604;7.316;2022-07-01T08:24:48;13.43;;;8.15;;
28495;SDS011;15710;51.604;7.316;2022-07-01T08:27:14;11.63;;;7.68;;
28495;SDS011;15710;51.604;7.316;2022-07-01T08:29:40;13.45;;;8.82;;
28495;SDS011;15710;51.604;7.316;2022-07-01T08:32:07;13.15;;;7.68;;
28495;SDS011;15710;51.604;7.316;2022-07-01T08:34:33;12.48;;;7.85;;
28495;SDS011;15710;51.604;7.316;2022-07-01T08:37:01;13.82;;;7.00;;
28495;SDS011;15710;51.604;7.316;2022-07-01T08:39:28;10.77;;;7.38;;
28495;SDS011;15710;51.604;7.316;2022-07-01T08:41:55;12.52;;;7.32;;
28495;SDS011;15710;51.604;7.316;2022-07-01T08:44:21;10.98;;;7.43;;
28495;SDS011;15710;51.604;7.316;2022-07-01T08:46:47;9.52;;;8.27;;
28495;SDS011;15710;51.604;7.316;2022-07-01T08:49:14;10.05;;;8.48;;
28495;SDS011;15710;51.604;7.316;2022-07-01T08:51:41;13.75;;;7.53;;
28495;SDS011;15710;51.604;7.316;2022-07-01T08:54:07;13.00;;;8.02;;
28495;SDS011;15710;51.604;7.316;2022-07-01T08:56:34;9.68;;;8.35;;
28495;SDS011;15710;51.604;7.316;2022-07-01T08:59:06;11.57;;;9.25;;
28495;SDS011;15710;51.604;7.316;2022-07-01T09:01:33;11.75;;;8.93;;
28495;SDS011;15710;51.604;7.316;2022-07-01T09:04:12;12.30;;;7.35;;
28495;SDS011;15710;51.604;7.316;2022-07-01T09:06:43;18.88;;;9.25;;
28495;SDS011;15710;51.604;7.316;2022-07-01T09:09:15;10.00;;;7.50;;
28495;SDS011;15710;51.604;7.316;2022-07-01T09:11:44;7.55;;;6.05;;
28495;SDS011;15710;51.604;7.316;2022-07-01T09:14:25;8.20;;;5.82;;
28495;SDS011;15710;51.604;7.316;2022-07-01T09:16:54;14.80;;;5.50;;
28495;SDS011;15710;51.604;7.316;2022-07-01T09:19:29;4.43;;;3.95;;
28495;SDS011;15710;51.604;7.316;2022-07-01T09:21:59;6.82;;;4.30;;
28495;SDS011;15710;51.604;7.316;2022-07-01T09:27:07;4.60;;;3.90;;
28495;SDS011;15710;51.604;7.316;2022-07-01T09:29:36;5.85;;;3.50;;
28495;SDS011;15710;51.604;7.316;2022-07-01T09:32:04;6.55;;;3.20;;
28495;SDS011;15710;51.604;7.316;2022-07-01T09:34:36;5.13;;;3.13;;
28495;SDS011;15710;51.604;7.316;2022-07-01T09:37:12;5.82;;;2.95;;
28495;SDS011;15710;51.604;7.316;2022-07-01T09:42:14;5.32;;;4.10;;
28495;SDS011;15710;51.604;7.316;2022-07-01T09:45:01;6.30;;;3.33;;
28495;SDS011;15710;51.604;7.316;2022-07-01T09:47:31;7.60;;;2.90;;
28495;SDS011;15710;51.604;7.316;2022-07-01T09:49:59;5.88;;;3.35;;
28495;SDS011;15710;51.604;7.316;2022-07-01T09:52:26;6.50;;;3.42;;
28495;SDS011;15710;51.604;7.316;2022-07-01T09:54:53;5.90;;;3.42;;
28495;SDS011;15710;51.604;7.316;2022-07-01T09:57:20;8.88;;;3.58;;
28495;SDS011;15710;51.604;7.316;2022-07-01T09:59:48;3.92;;;3.25;;
28495;SDS011;15710;51.604;7.316;2022-07-01T10:02:21;11.45;;;3.70;;
28495;SDS011;15710;51.604;7.316;2022-07-01T10:05:00;7.20;;;3.15;;
28495;SDS011;15710;51.604;7.316;2022-07-01T10:07:41;5.35;;;3.33;;
28495;SDS011;15710;51.604;7.316;2022-07-01T10:13:13;5.47;;;3.30;;
28495;SDS011;15710;51.604;7.316;2022-07-01T10:15:42;7.22;;;3.50;;
28495;SDS011;15710;51.604;7.316;2022-07-01T10:18:20;8.07;;;3.25;;
28495;SDS011;15710;51.604;7.316;2022-07-01T10:20:48;6.40;;;3.22;;
28495;SDS011;15710;51.604;7.316;2022-07-01T10:23:14;6.85;;;2.70;;
28495;SDS011;15710;51.604;7.316;2022-07-01T10:33:29;4.55;;;2.35;;
28495;SDS011;15710;51.604;7.316;2022-07-01T10:36:46;5.55;;;2.03;;
28495;SDS011;15710;51.604;7.316;2022-07-01T10:41:33;2.92;;;1.42;;
28495;SDS011;15710;51.604;7.316;2022-07-01T10:44:10;4.03;;;1.75;;
28495;SDS011;15710;51.604;7.316;2022-07-01T10:52:03;3.38;;;1.70;;
28495;SDS011;15710;51.604;7.316;2022-07-01T10:59:52;2.25;;;1.70;;
28495;SDS011;15710;51.604;7.316;2022-07-01T11:02:41;10.85;;;2.90;;
28495;SDS011;15710;51.604;7.316;2022-07-01T11:05:08;18.90;;;4.18;;
28495;SDS011;15710;51.604;7.316;2022-07-01T11:07:36;6.43;;;1.95;;
28495;SDS011;15710;51.604;7.316;2022-07-01T11:10:05;5.38;;;1.38;;
28495;SDS011;15710;51.604;7.316;2022-07-01T11:12:33;3.10;;;1.25;;
28495;SDS011;15710;51.604;7.316;2022-07-01T11:15:00;7.57;;;1.50;;
28495;SDS011;15710;51.604;7.316;2022-07-01T11:17:36;4.65;;;1.50;;
28495;SDS011;15710;51.604;7.316;2022-07-01T11:20:08;4.43;;;1.90;;
28495;SDS011;15710;51.604;7.316;2022-07-01T11:22:35;4.28;;;1.52;;
28495;SDS011;15710;51.604;7.316;2022-07-01T11:25:11;3.90;;;1.20;;
28495;SDS011;15710;51.604;7.316;2022-07-01T11:27:37;5.22;;;1.08;;
28495;SDS011;15710;51.604;7.316;2022-07-01T11:30:05;2.17;;;0.80;;
28495;SDS011;15710;51.604;7.316;2022-07-01T11:32:35;1.63;;;1.20;;
28495;SDS011;15710;51.604;7.316;2022-07-01T11:35:04;2.95;;;1.17;;
28495;SDS011;15710;51.604;7.316;2022-07-01T11:38:07;1.60;;;0.80;;
28495;SDS011;15710;51.604;7.316;2022-07-01T11:40:59;2.25;;;1.05;;
28495;SDS011;15710;51.604;7.316;2022-07-01T11:43:28;4.63;;;1.50;;
28495;SDS011;15710;51.604;7.316;2022-07-01T11:45:59;1.92;;;0.93;;
28495;SDS011;15710;51.604;7.316;2022-07-01T11:48:28;2.50;;;1.00;;
28495;SDS011;15710;51.604;7.316;2022-07-01T11:51:07;2.38;;;0.95;;
28495;SDS011;15710;51.604;7.316;2022-07-01T11:53:33;5.00;;;1.27;;
28495;SDS011;15710;51.604;7.316;2022-07-01T11:55:59;5.03;;;1.13;;
28495;SDS011;15710;51.604;7.316;2022-07-01T12:01:19;5.50;;;0.93;;
28495;SDS011;15710;51.604;7.316;2022-07-01T12:03:46;6.93;;;1.30;;
28495;SDS011;15710;51.604;7.316;2022-07-01T12:06:12;3.17;;;0.90;;
28495;SDS011;15710;51.604;7.316;2022-07-01T12:08:38;4.40;;;1.35;;
28495;SDS011;15710;51.604;7.316;2022-07-01T12:11:06;2.35;;;1.20;;
28495;SDS011;15710;51.604;7.316;2022-07-01T12:13:34;3.35;;;1.08;;
28495;SDS011;15710;51.604;7.316;2022-07-01T12:16:11;4.22;;;1.70;;
28495;SDS011;15710;51.604;7.316;2022-07-01T12:18:37;4.22;;;1.50;;
28495;SDS011;15710;51.604;7.316;2022-07-01T12:21:03;3.20;;;0.90;;
28495;SDS011;15710;51.604;7.316;2022-07-01T12:23:30;2.63;;;1.08;;
28495;SDS011;15710;51.604;7.316;2022-07-01T12:26:03;3.63;;;1.02;;
28495;SDS011;15710;51.604;7.316;2022-07-01T12:28:31;2.60;;;0.88;;
28495;SDS011;15710;51.604;7.316;2022-07-01T12:30:59;2.38;;;1.10;;
28495;SDS011;15710;51.604;7.316;2022-07-01T12:33:28;5.43;;;1.30;;
28495;SDS011;15710;51.604;7.316;2022-07-01T12:35:54;5.63;;;0.95;;
28495;SDS011;15710;51.604;7.316;2022-07-01T12:38:21;5.93;;;1.23;;
28495;SDS011;15710;51.604;7.316;2022-07-01T12:40:47;2.85;;;1.30;;
28495;SDS011;15710;51.604;7.316;2022-07-01T12:46:12;1.67;;;0.70;;
28495;SDS011;15710;51.604;7.316;2022-07-01T12:48:55;4.00;;;1.00;;
28495;SDS011;15710;51.604;7.316;2022-07-01T12:51:28;4.97;;;1.48;;
28495;SDS011;15710;51.604;7.316;2022-07-01T12:53:56;4.60;;;1.15;;
28495;SDS011;15710;51.604;7.316;2022-07-01T12:56:24;3.33;;;1.33;;
28495;SDS011;15710;51.604;7.316;2022-07-01T12:58:54;3.70;;;1.30;;
28495;SDS011;15710;51.604;7.316;2022-07-01T13:01:21;1.75;;;1.17;;
28495;SDS011;15710;51.604;7.316;2022-07-01T13:03:47;3.63;;;0.93;;
28495;SDS011;15710;51.604;7.316;2022-07-01T13:06:13;1.80;;;1.00;;
28495;SDS011;15710;51.604;7.316;2022-07-01T13:08:39;4.57;;;1.50;;
28495;SDS011;15710;51.604;7.316;2022-07-01T13:11:05;2.78;;;1.40;;
28495;SDS011;15710;51.604;7.316;2022-07-01T13:13:32;4.75;;;1.40;;
28495;SDS011;15710;51.604;7.316;2022-07-01T13:15:58;4.13;;;1.23;;
28495;SDS011;15710;51.604;7.316;2022-07-01T13:18:24;2.65;;;1.27;;
28495;SDS011;15710;51.604;7.316;2022-07-01T13:20:50;6.28;;;1.58;;
28495;SDS011;15710;51.604;7.316;2022-07-01T13:23:17;4.18;;;1.40;;
28495;SDS011;15710;51.604;7.316;2022-07-01T13:25:43;4.18;;;1.48;;
28495;SDS011;15710;51.604;7.316;2022-07-01T13:28:09;4.72;;;1.38;;
28495;SDS011;15710;51.604;7.316;2022-07-01T13:30:35;3.70;;;1.58;;
28495;SDS011;15710;51.604;7.316;2022-07-01T13:33:02;4.10;;;1.05;;
28495;SDS011;15710;51.604;7.316;2022-07-01T13:35:28;3.22;;;1.42;;
28495;SDS011;15710;51.604;7.316;2022-07-01T13:37:54;3.97;;;1.10;;
28495;SDS011;15710;51.604;7.316;2022-07-01T13:40:20;3.33;;;1.20;;
28495;SDS011;15710;51.604;7.316;2022-07-01T13:42:49;3.30;;;1.65;;
28495;SDS011;15710;51.604;7.316;2022-07-01T13:45:15;1.77;;;0.93;;
28495;SDS011;15710;51.604;7.316;2022-07-01T13:47:41;2.47;;;1.00;;
28495;SDS011;15710;51.604;7.316;2022-07-01T13:50:08;4.38;;;1.20;;
28495;SDS011;15710;51.604;7.316;2022-07-01T13:52:35;4.53;;;1.10;;
28495;SDS011;15710;51.604;7.316;2022-07-01T13:55:02;3.17;;;1.67;;
28495;SDS011;15710;51.604;7.316;2022-07-01T13:57:28;2.08;;;1.15;;
28495;SDS011;15710;51.604;7.316;2022-07-01T13:59:54;8.77;;;1.45;;
28495;SDS011;15710;51.604;7.316;2022-07-01T14:02:22;6.60;;;1.13;;
28495;SDS011;15710;51.604;7.316;2022-07-01T14:04:48;6.40;;;1.05;;
28495;SDS011;15710;51.604;7.316;2022-07-01T14:07:14;4.03;;;0.95;;
28495;SDS011;15710;51.604;7.316;2022-07-01T14:09:40;5.15;;;0.80;;
28495;SDS011;15710;51.604;7.316;2022-07-01T14:12:09;3.50;;;0.88;;
28495;SDS011;15710;51.604;7.316;2022-07-01T14:14:35;3.38;;;1.10;;
28495;SDS011;15710;51.604;7.316;2022-07-01T14:17:01;2.53;;;0.90;;
28495;SDS011;15710;51.604;7.316;2022-07-01T14:19:27;4.05;;;1.00;;
28495;SDS011;15710;51.604;7.316;2022-07-01T14:21:54;3.35;;;0.75;;
28495;SDS011;15710;51.604;7.316;2022-07-01T14:24:20;1.52;;;0.65;;
28495;SDS011;15710;51.604;7.316;2022-07-01T14:26:46;2.60;;;0.90;;
28495;SDS011;15710;51.604;7.316;2022-07-01T14:29:13;4.57;;;0.93;;
28495;SDS011;15710;51.604;7.316;2022-07-01T14:31:39;6.28;;;1.13;;
28495;SDS011;15710;51.604;7.316;2022-07-01T14:34:05;3.53;;;1.25;;
28495;SDS011;15710;51.604;7.316;2022-07-01T14:36:32;4.63;;;0.95;;
28495;SDS011;15710;51.604;7.316;2022-07-01T14:38:58;5.32;;;1.17;;
28495;SDS011;15710;51.604;7.316;2022-07-01T14:41:24;3.92;;;1.05;;
28495;SDS011;15710;51.604;7.316;2022-07-01T14:43:50;4.53;;;1.35;;
28495;SDS011;15710;51.604;7.316;2022-07-01T14:46:16;3.55;;;1.25;;
28495;SDS011;15710;51.604;7.316;2022-07-01T14:48:42;1.48;;;0.82;;
28495;SDS011;15710;51.604;7.316;2022-07-01T14:51:08;5.18;;;1.48;;
28495;SDS011;15710;51.604;7.316;2022-07-01T14:53:35;2.50;;;0.70;;
28495;SDS011;15710;51.604;7.316;2022-07-01T14:56:01;2.28;;;1.02;;
28495;SDS011;15710;51.604;7.316;2022-07-01T14:58:27;4.18;;;1.00;;
28495;SDS011;15710;51.604;7.316;2022-07-01T15:00:53;2.72;;;1.00;;
28495;SDS011;15710;51.604;7.316;2022-07-01T15:03:19;2.05;;;0.95;;
28495;SDS011;15710;51.604;7.316;2022-07-01T15:05:45;1.95;;;0.90;;
28495;SDS011;15710;51.604;7.316;2022-07-01T15:08:12;2.25;;;0.77;;
28495;SDS011;15710;51.604;7.316;2022-07-01T15:10:39;1.30;;;0.80;;